createdAt,value
2018-06-18T00:00:47.073Z,0.00
2018-06-18T00:01:47.071Z,0.00
2018-06-18T00:02:47.072Z,0.00
2018-06-18T00:03:47.069Z,0.00
2018-06-18T00:04:47.068Z,0.00
2018-06-18T00:05:47.068Z,0.00
2018-06-18T00:06:47.070Z,0.00
2018-06-18T00:07:47.066Z,0.00
2018-06-18T00:08:47.064Z,0.00
2018-06-18T00:09:47.061Z,0.00
2018-06-18T00:10:47.063Z,0.00
2018-06-18T00:11:47.058Z,0.00
2018-06-18T00:12:47.057Z,0.00
2018-06-18T00:13:47.057Z,0.00
2018-06-18T00:14:47.055Z,0.00
2018-06-18T00:15:47.054Z,0.00
2018-06-18T00:16:47.053Z,0.00
2018-06-18T00:17:47.054Z,0.00
2018-06-18T00:18:47.051Z,0.00
2018-06-18T00:19:47.052Z,0.00
2018-06-18T00:20:47.042Z,0.00
2018-06-18T00:21:47.048Z,0.00
2018-06-18T00:22:47.045Z,0.00
2018-06-18T00:23:47.046Z,0.00
2018-06-18T00:24:47.040Z,0.00
2018-06-18T00:25:47.043Z,0.00
2018-06-18T00:26:47.040Z,0.00
2018-06-18T00:27:47.040Z,0.00
2018-06-18T00:28:47.042Z,0.00
2018-06-18T00:29:47.035Z,0.00
2018-06-18T00:30:47.035Z,0.00
2018-06-18T00:31:47.036Z,0.00
2018-06-18T00:32:47.031Z,0.00
2018-06-18T00:33:47.031Z,0.00
2018-06-18T00:34:47.030Z,0.00
2018-06-18T00:35:47.030Z,0.00
2018-06-18T00:36:47.028Z,0.00
2018-06-18T00:37:47.026Z,0.00
2018-06-18T00:38:47.026Z,0.00
2018-06-18T00:39:47.022Z,0.00
2018-06-18T00:40:47.023Z,0.00
2018-06-18T00:41:47.020Z,0.00
2018-06-18T00:42:47.020Z,0.00
2018-06-18T00:43:47.019Z,0.00
2018-06-18T00:44:47.015Z,0.00
2018-06-18T00:45:47.012Z,0.00
2018-06-18T00:46:47.014Z,0.00
2018-06-18T00:47:47.013Z,0.00
2018-06-18T00:48:47.011Z,0.00
2018-06-18T00:49:47.009Z,0.00
2018-06-18T00:50:47.009Z,0.00
2018-06-18T00:51:47.004Z,0.00
2018-06-18T00:52:47.005Z,0.00
2018-06-18T00:53:47.005Z,0.00
2018-06-18T00:54:47.003Z,0.00
2018-06-18T00:55:47.005Z,0.00
2018-06-18T00:56:47.000Z,0.00
2018-06-18T00:57:46.993Z,0.00
2018-06-18T00:58:47.000Z,0.00
2018-06-18T00:59:47.001Z,0.00
2018-06-18T01:00:46.996Z,0.00
2018-06-18T01:01:47.007Z,0.00
2018-06-18T01:02:46.991Z,0.00
2018-06-18T01:03:46.994Z,0.00
2018-06-18T01:04:46.991Z,0.00
2018-06-18T01:05:46.988Z,0.00
2018-06-18T01:06:46.988Z,0.00
2018-06-18T01:07:46.986Z,0.00
2018-06-18T01:08:46.984Z,0.00
2018-06-18T01:09:46.984Z,0.00
2018-06-18T01:10:46.982Z,0.00
2018-06-18T01:11:46.981Z,0.00
2018-06-18T01:12:46.979Z,0.00
2018-06-18T01:13:46.979Z,0.00
2018-06-18T01:14:46.981Z,0.00
2018-06-18T01:15:46.977Z,0.00
2018-06-18T01:16:46.971Z,0.00
2018-06-18T01:17:46.972Z,0.00
2018-06-18T01:18:46.969Z,0.00
2018-06-18T01:19:50.455Z,0.00
2018-06-18T01:20:46.967Z,0.00
2018-06-18T01:21:46.966Z,0.00
2018-06-18T01:22:46.966Z,0.00
2018-06-18T01:23:46.963Z,0.00
2018-06-18T01:24:46.961Z,0.00
2018-06-18T01:25:46.962Z,0.00
2018-06-18T01:26:46.959Z,0.00
2018-06-18T01:27:46.961Z,0.00
2018-06-18T01:28:46.956Z,0.00
2018-06-18T01:29:46.954Z,0.00
2018-06-18T01:30:46.954Z,0.00
2018-06-18T01:31:46.952Z,0.00
2018-06-18T01:32:46.950Z,0.00
2018-06-18T01:33:46.950Z,0.00
2018-06-18T01:34:46.950Z,0.00
2018-06-18T01:35:46.952Z,0.00
2018-06-18T01:36:46.944Z,0.00
2018-06-18T01:37:46.944Z,0.00
2018-06-18T01:38:46.944Z,0.00
2018-06-18T01:39:46.942Z,0.00
2018-06-18T01:40:46.939Z,0.00
2018-06-18T01:41:46.938Z,0.00
2018-06-18T01:42:46.939Z,0.00
2018-06-18T01:43:46.935Z,0.00
2018-06-18T01:44:46.934Z,0.00
2018-06-18T01:45:46.932Z,0.00
2018-06-18T01:46:46.929Z,0.00
2018-06-18T01:47:46.928Z,0.00
2018-06-18T01:48:46.927Z,0.00
2018-06-18T01:49:46.927Z,0.00
2018-06-18T01:50:46.924Z,0.00
2018-06-18T01:51:46.922Z,0.00
2018-06-18T01:52:46.920Z,0.00
2018-06-18T01:53:46.920Z,0.00
2018-06-18T01:54:46.920Z,0.00
2018-06-18T01:55:46.918Z,0.00
2018-06-18T01:56:46.916Z,0.00
2018-06-18T01:57:46.915Z,0.00
2018-06-18T01:58:46.912Z,0.00
2018-06-18T01:59:46.911Z,0.00
2018-06-18T02:00:46.909Z,0.00
2018-06-18T02:01:46.908Z,0.00
2018-06-18T02:02:46.907Z,0.00
2018-06-18T02:03:46.904Z,0.00
2018-06-18T02:04:46.902Z,0.00
2018-06-18T02:05:46.902Z,0.00
2018-06-18T02:06:46.902Z,0.00
2018-06-18T02:07:46.899Z,0.00
2018-06-18T02:08:46.906Z,0.00
2018-06-18T02:09:46.897Z,0.00
2018-06-18T02:10:46.894Z,0.00
2018-06-18T02:11:46.894Z,0.00
2018-06-18T02:12:46.891Z,0.00
2018-06-18T02:13:46.889Z,0.00
2018-06-18T02:14:46.888Z,0.00
2018-06-18T02:15:46.889Z,0.00
2018-06-18T02:16:46.885Z,0.00
2018-06-18T02:17:46.884Z,0.00
2018-06-18T02:18:46.883Z,0.00
2018-06-18T02:19:46.882Z,0.00
2018-06-18T02:20:46.881Z,0.00
2018-06-18T02:21:46.879Z,0.00
2018-06-18T02:22:46.877Z,0.00
2018-06-18T02:23:46.877Z,0.00
2018-06-18T02:24:46.874Z,0.00
2018-06-18T02:25:46.873Z,0.00
2018-06-18T02:26:46.871Z,0.00
2018-06-18T02:27:46.870Z,0.00
2018-06-18T02:28:46.870Z,0.00
2018-06-18T02:29:46.866Z,0.00
2018-06-18T02:30:46.865Z,0.00
2018-06-18T02:31:46.865Z,0.00
2018-06-18T02:32:46.863Z,0.00
2018-06-18T02:33:46.860Z,0.00
2018-06-18T02:34:46.860Z,0.00
2018-06-18T02:35:46.857Z,0.00
2018-06-18T02:36:46.856Z,0.00
2018-06-18T02:37:46.855Z,0.00
2018-06-18T02:38:46.855Z,0.00
2018-06-18T02:39:46.852Z,0.00
2018-06-18T02:40:46.850Z,0.00
2018-06-18T02:41:46.852Z,0.00
2018-06-18T02:42:46.848Z,0.00
2018-06-18T02:43:46.845Z,0.00
2018-06-18T02:44:46.844Z,0.00
2018-06-18T02:45:46.842Z,0.00
2018-06-18T02:46:46.841Z,0.00
2018-06-18T02:47:46.841Z,0.00
2018-06-18T02:48:46.837Z,0.00
2018-06-18T02:49:46.837Z,0.00
2018-06-18T02:50:46.836Z,0.00
2018-06-18T02:51:46.833Z,0.00
2018-06-18T02:52:46.832Z,0.00
2018-06-18T02:53:46.829Z,0.00
2018-06-18T02:54:46.827Z,0.00
2018-06-18T02:55:46.826Z,0.00
2018-06-18T02:56:46.827Z,0.00
2018-06-18T02:57:46.823Z,0.00
2018-06-18T02:58:46.821Z,0.00
2018-06-18T02:59:46.820Z,0.00
2018-06-18T03:00:46.818Z,0.00
2018-06-18T03:01:46.816Z,0.00
2018-06-18T03:02:46.814Z,0.00
2018-06-18T03:03:46.814Z,0.00
2018-06-18T03:04:46.815Z,0.00
2018-06-18T03:05:46.809Z,0.00
2018-06-18T03:06:46.809Z,0.00
2018-06-18T03:07:46.808Z,0.00
2018-06-18T03:08:46.806Z,0.00
2018-06-18T03:09:46.803Z,0.00
2018-06-18T03:10:46.802Z,5.63
2018-06-18T03:11:46.800Z,5.63
2018-06-18T03:12:46.799Z,5.63
2018-06-18T03:13:46.801Z,5.63
2018-06-18T03:14:46.795Z,5.63
2018-06-18T03:15:46.793Z,5.63
2018-06-18T03:16:46.791Z,5.63
2018-06-18T03:17:46.790Z,5.63
2018-06-18T03:18:46.789Z,5.63
2018-06-18T03:19:46.788Z,5.63
2018-06-18T03:20:46.784Z,11.25
2018-06-18T03:21:46.782Z,11.25
2018-06-18T03:22:46.780Z,11.25
2018-06-18T03:23:46.780Z,11.25
2018-06-18T03:24:46.776Z,11.25
2018-06-18T03:25:46.779Z,11.25
2018-06-18T03:26:46.787Z,11.25
2018-06-18T03:27:46.771Z,11.25
2018-06-18T03:28:46.768Z,11.25
2018-06-18T03:29:46.767Z,16.88
2018-06-18T03:30:46.767Z,16.88
2018-06-18T03:31:46.769Z,16.88
2018-06-18T03:32:46.764Z,16.88
2018-06-18T03:33:46.764Z,16.88
2018-06-18T03:34:46.758Z,16.88
2018-06-18T03:35:46.757Z,16.88
2018-06-18T03:36:46.756Z,22.50
2018-06-18T03:37:46.754Z,22.50
2018-06-18T03:38:46.751Z,22.50
2018-06-18T03:39:46.748Z,22.50
2018-06-18T03:40:46.746Z,22.50
2018-06-18T03:41:46.745Z,28.13
2018-06-18T03:42:46.743Z,28.13
2018-06-18T03:43:46.742Z,28.13
2018-06-18T03:44:46.741Z,28.13
2018-06-18T03:45:46.737Z,28.13
2018-06-18T03:46:46.737Z,33.75
2018-06-18T03:47:46.735Z,33.75
2018-06-18T03:48:46.732Z,33.75
2018-06-18T03:49:46.730Z,39.38
2018-06-18T03:50:46.729Z,39.38
2018-06-18T03:51:46.727Z,39.38
2018-06-18T03:52:46.726Z,39.38
2018-06-18T03:53:46.725Z,45.00
2018-06-18T03:54:46.721Z,45.00
2018-06-18T03:55:46.719Z,45.00
2018-06-18T03:56:46.721Z,50.63
2018-06-18T03:57:46.716Z,50.63
2018-06-18T03:58:46.711Z,56.25
2018-06-18T03:59:46.713Z,56.25
2018-06-18T04:00:46.711Z,56.25
2018-06-18T04:01:46.708Z,61.88
2018-06-18T04:02:46.709Z,61.88
2018-06-18T04:03:46.707Z,61.88
2018-06-18T04:04:46.704Z,67.50
2018-06-18T04:05:46.702Z,67.50
2018-06-18T04:06:46.704Z,67.50
2018-06-18T04:07:46.699Z,67.50
2018-06-18T04:08:46.697Z,61.88
2018-06-18T04:09:46.695Z,61.88
2018-06-18T04:10:46.709Z,67.50
2018-06-18T04:11:46.692Z,73.13
2018-06-18T04:12:46.694Z,73.13
2018-06-18T04:13:46.689Z,78.75
2018-06-18T04:14:46.688Z,78.75
2018-06-18T04:15:46.684Z,78.75
2018-06-18T04:16:46.682Z,84.38
2018-06-18T04:17:46.690Z,84.38
2018-06-18T04:18:46.679Z,90.00
2018-06-18T04:19:46.685Z,95.63
2018-06-18T04:20:46.677Z,95.63
2018-06-18T04:21:46.680Z,95.63
2018-06-18T04:22:46.674Z,95.63
2018-06-18T04:23:46.676Z,95.63
2018-06-18T04:24:46.692Z,101.25
2018-06-18T04:25:46.670Z,101.25
2018-06-18T04:26:46.669Z,106.88
2018-06-18T04:27:46.667Z,106.88
2018-06-18T04:28:46.665Z,106.88
2018-06-18T04:29:46.663Z,106.88
2018-06-18T04:30:46.661Z,106.88
2018-06-18T04:31:46.660Z,101.25
2018-06-18T04:32:46.657Z,101.25
2018-06-18T04:33:46.656Z,101.25
2018-06-18T04:34:46.655Z,101.25
2018-06-18T04:35:46.654Z,101.25
2018-06-18T04:36:46.651Z,101.25
2018-06-18T04:37:46.670Z,101.25
2018-06-18T04:38:46.652Z,106.88
2018-06-18T04:39:46.649Z,106.88
2018-06-18T04:40:46.645Z,112.50
2018-06-18T04:41:46.643Z,112.50
2018-06-18T04:42:46.642Z,112.50
2018-06-18T04:43:46.643Z,112.50
2018-06-18T04:44:46.687Z,106.88
2018-06-18T04:45:46.637Z,106.88
2018-06-18T04:46:46.640Z,106.88
2018-06-18T04:47:46.635Z,106.88
2018-06-18T04:48:46.633Z,106.88
2018-06-18T04:49:46.631Z,101.25
2018-06-18T04:50:46.629Z,101.25
2018-06-18T04:51:46.629Z,106.88
2018-06-18T04:52:46.629Z,106.88
2018-06-18T04:53:46.624Z,106.88
2018-06-18T04:54:46.624Z,106.88
2018-06-18T04:55:46.621Z,112.50
2018-06-18T04:56:46.637Z,118.13
2018-06-18T04:57:46.620Z,112.50
2018-06-18T04:58:46.618Z,112.50
2018-06-18T04:59:46.613Z,106.88
2018-06-18T05:00:46.613Z,101.25
2018-06-18T05:01:46.614Z,101.25
2018-06-18T05:02:46.611Z,101.25
2018-06-18T05:03:46.611Z,101.25
2018-06-18T05:04:46.608Z,101.25
2018-06-18T05:05:46.606Z,101.25
2018-06-18T05:06:46.605Z,101.25
2018-06-18T05:07:46.607Z,101.25
2018-06-18T05:08:46.603Z,101.25
2018-06-18T05:09:46.600Z,101.25
2018-06-18T05:10:46.599Z,101.25
2018-06-18T05:11:46.602Z,101.25
2018-06-18T05:12:46.596Z,106.88
2018-06-18T05:13:46.593Z,112.50
2018-06-18T05:14:46.593Z,112.50
2018-06-18T05:15:46.591Z,118.13
2018-06-18T05:16:46.589Z,129.38
2018-06-18T05:17:46.589Z,135.00
2018-06-18T05:18:46.590Z,135.00
2018-06-18T05:19:46.585Z,135.00
2018-06-18T05:20:46.618Z,135.00
2018-06-18T05:21:46.585Z,140.63
2018-06-18T05:22:46.585Z,140.63
2018-06-18T05:23:46.580Z,146.25
2018-06-18T05:24:46.574Z,151.88
2018-06-18T05:25:46.574Z,163.13
2018-06-18T05:26:46.575Z,163.13
2018-06-18T05:27:46.573Z,168.75
2018-06-18T05:28:46.567Z,168.75
2018-06-18T05:29:46.569Z,174.38
2018-06-18T05:30:46.566Z,174.38
2018-06-18T05:31:46.566Z,174.38
2018-06-18T05:32:46.562Z,168.75
2018-06-18T05:33:46.562Z,163.13
2018-06-18T05:34:46.562Z,168.75
2018-06-18T05:35:46.563Z,174.38
2018-06-18T05:36:46.558Z,180.00
2018-06-18T05:37:46.554Z,180.00
2018-06-18T05:38:46.554Z,174.38
2018-06-18T05:39:46.552Z,168.75
2018-06-18T05:40:46.554Z,168.75
2018-06-18T05:41:46.549Z,163.13
2018-06-18T05:42:46.547Z,157.50
2018-06-18T05:43:46.548Z,146.25
2018-06-18T05:44:46.543Z,146.25
2018-06-18T05:45:46.544Z,163.13
2018-06-18T05:46:46.541Z,163.13
2018-06-18T05:47:46.544Z,157.50
2018-06-18T05:48:46.539Z,157.50
2018-06-18T05:49:46.537Z,151.88
2018-06-18T05:50:46.568Z,151.88
2018-06-18T05:51:46.535Z,151.88
2018-06-18T05:52:46.531Z,146.25
2018-06-18T05:53:46.531Z,140.63
2018-06-18T05:54:46.529Z,151.88
2018-06-18T05:55:46.530Z,151.88
2018-06-18T05:56:46.526Z,157.50
2018-06-18T05:57:46.527Z,157.50
2018-06-18T05:58:46.528Z,157.50
2018-06-18T05:59:46.523Z,157.50
2018-06-18T06:00:46.521Z,146.25
2018-06-18T06:01:46.521Z,151.88
2018-06-18T06:02:46.521Z,157.50
2018-06-18T06:03:46.517Z,157.50
2018-06-18T06:04:46.515Z,157.50
2018-06-18T06:05:46.514Z,157.50
2018-06-18T06:06:46.513Z,163.13
2018-06-18T06:07:46.512Z,163.13
2018-06-18T06:08:46.509Z,174.38
2018-06-18T06:09:46.508Z,185.63
2018-06-18T06:10:46.509Z,191.25
2018-06-18T06:11:46.508Z,202.50
2018-06-18T06:12:46.519Z,208.13
2018-06-18T06:13:46.537Z,213.75
2018-06-18T06:14:46.503Z,213.75
2018-06-18T06:15:46.501Z,213.75
2018-06-18T06:16:46.537Z,208.13
2018-06-18T06:17:46.499Z,202.50
2018-06-18T06:18:46.497Z,196.88
2018-06-18T06:19:46.494Z,191.25
2018-06-18T06:20:46.493Z,191.25
2018-06-18T06:21:46.494Z,185.63
2018-06-18T06:22:46.490Z,180.00
2018-06-18T06:23:46.491Z,174.38
2018-06-18T06:24:46.488Z,174.38
2018-06-18T06:25:46.488Z,168.75
2018-06-18T06:26:46.488Z,163.13
2018-06-18T06:27:46.489Z,163.13
2018-06-18T06:28:46.482Z,163.13
2018-06-18T06:29:46.484Z,163.13
2018-06-18T06:30:46.481Z,163.13
2018-06-18T06:31:46.480Z,146.25
2018-06-18T06:32:46.481Z,157.50
2018-06-18T06:33:46.477Z,163.13
2018-06-18T06:34:46.477Z,163.13
2018-06-18T06:35:46.478Z,163.13
2018-06-18T06:36:46.479Z,163.13
2018-06-18T06:37:46.475Z,163.13
2018-06-18T06:38:46.476Z,163.13
2018-06-18T06:39:46.472Z,163.13
2018-06-18T06:40:46.472Z,163.13
2018-06-18T06:41:46.470Z,163.13
2018-06-18T06:42:46.468Z,163.13
2018-06-18T06:43:46.468Z,163.13
2018-06-18T06:44:46.469Z,163.13
2018-06-18T06:45:46.465Z,163.13
2018-06-18T06:46:46.465Z,163.13
2018-06-18T06:47:46.464Z,163.13
2018-06-18T06:48:46.464Z,163.13
2018-06-18T06:49:46.462Z,163.13
2018-06-18T06:50:46.459Z,163.13
2018-06-18T06:51:46.461Z,163.13
2018-06-18T06:52:46.457Z,163.13
2018-06-18T06:53:46.458Z,163.13
2018-06-18T06:54:46.472Z,163.13
2018-06-18T06:55:46.454Z,168.75
2018-06-18T06:56:46.453Z,168.75
2018-06-18T06:57:46.454Z,174.38
2018-06-18T06:58:46.451Z,180.00
2018-06-18T06:59:46.449Z,185.63
2018-06-18T07:00:46.449Z,185.63
2018-06-18T07:01:46.448Z,174.38
2018-06-18T07:02:46.448Z,185.63
2018-06-18T07:03:46.451Z,174.38
2018-06-18T07:04:46.443Z,174.38
2018-06-18T07:05:46.444Z,168.75
2018-06-18T07:06:46.443Z,157.50
2018-06-18T07:07:46.451Z,151.88
2018-06-18T07:08:46.442Z,151.88
2018-06-18T07:09:46.439Z,151.88
2018-06-18T07:10:46.435Z,163.13
2018-06-18T07:11:46.438Z,180.00
2018-06-18T07:12:46.436Z,191.25
2018-06-18T07:13:46.492Z,208.13
2018-06-18T07:14:46.435Z,213.75
2018-06-18T07:15:46.436Z,225.00
2018-06-18T07:16:46.432Z,236.25
2018-06-18T07:17:46.434Z,247.50
2018-06-18T07:18:46.431Z,253.13
2018-06-18T07:19:46.430Z,253.13
2018-06-18T07:20:46.430Z,258.75
2018-06-18T07:21:46.426Z,258.75
2018-06-18T07:22:46.428Z,258.75
2018-06-18T07:23:46.427Z,253.13
2018-06-18T07:24:46.426Z,247.50
2018-06-18T07:25:46.428Z,253.13
2018-06-18T07:26:46.425Z,219.38
2018-06-18T07:27:46.427Z,208.13
2018-06-18T07:28:46.424Z,196.88
2018-06-18T07:29:46.424Z,196.88
2018-06-18T07:30:46.441Z,191.25
2018-06-18T07:31:46.422Z,191.25
2018-06-18T07:32:46.421Z,196.88
2018-06-18T07:33:46.419Z,196.88
2018-06-18T07:34:46.419Z,208.13
2018-06-18T07:35:46.420Z,208.13
2018-06-18T07:36:46.417Z,202.50
2018-06-18T07:37:46.418Z,208.13
2018-06-18T07:38:46.417Z,202.50
2018-06-18T07:39:46.416Z,202.50
2018-06-18T07:40:46.417Z,196.88
2018-06-18T07:41:46.416Z,196.88
2018-06-18T07:42:46.416Z,196.88
2018-06-18T07:43:46.414Z,196.88
2018-06-18T07:44:46.416Z,202.50
2018-06-18T07:45:46.414Z,208.13
2018-06-18T07:46:46.409Z,213.75
2018-06-18T07:47:46.411Z,213.75
2018-06-18T07:48:46.408Z,213.75
2018-06-18T07:49:46.407Z,213.75
2018-06-18T07:50:46.407Z,213.75
2018-06-18T07:51:46.449Z,225.00
2018-06-18T07:52:46.405Z,213.75
2018-06-18T07:53:46.406Z,236.25
2018-06-18T07:54:46.408Z,241.88
2018-06-18T07:55:46.403Z,236.25
2018-06-18T07:56:46.401Z,241.88
2018-06-18T07:57:46.401Z,236.25
2018-06-18T07:58:46.398Z,225.00
2018-06-18T07:59:46.398Z,225.00
2018-06-18T08:00:46.396Z,241.88
2018-06-18T08:01:46.399Z,236.25
2018-06-18T08:02:46.398Z,247.50
2018-06-18T08:03:46.394Z,253.13
2018-06-18T08:04:46.394Z,258.75
2018-06-18T08:05:46.397Z,258.75
2018-06-18T08:06:46.394Z,258.75
2018-06-18T08:07:46.390Z,247.50
2018-06-18T08:08:46.398Z,247.50
2018-06-18T08:09:46.438Z,241.88
2018-06-18T08:10:46.389Z,225.00
2018-06-18T08:11:46.391Z,213.75
2018-06-18T08:12:46.388Z,208.13
2018-06-18T08:13:46.389Z,202.50
2018-06-18T08:14:46.389Z,202.50
2018-06-18T08:15:46.387Z,202.50
2018-06-18T08:16:46.388Z,202.50
2018-06-18T08:17:46.388Z,208.13
2018-06-18T08:18:46.386Z,213.75
2018-06-18T08:19:46.383Z,225.00
2018-06-18T08:20:46.385Z,225.00
2018-06-18T08:21:46.382Z,225.00
2018-06-18T08:22:46.384Z,225.00
2018-06-18T08:23:46.389Z,230.63
2018-06-18T08:24:46.380Z,230.63
2018-06-18T08:25:46.390Z,241.88
2018-06-18T08:26:46.380Z,247.50
2018-06-18T08:27:46.381Z,236.25
2018-06-18T08:28:46.381Z,230.63
2018-06-18T08:29:46.380Z,230.63
2018-06-18T08:30:46.379Z,247.50
2018-06-18T08:31:46.380Z,230.63
2018-06-18T08:32:46.379Z,219.38
2018-06-18T08:33:46.381Z,230.63
2018-06-18T08:34:46.446Z,219.38
2018-06-18T08:35:46.381Z,225.00
2018-06-18T08:36:46.379Z,247.50
2018-06-18T08:37:46.381Z,264.38
2018-06-18T08:38:46.380Z,270.00
2018-06-18T08:39:46.380Z,258.75
2018-06-18T08:40:46.380Z,236.25
2018-06-18T08:41:46.378Z,236.25
2018-06-18T08:42:46.378Z,247.50
2018-06-18T08:43:46.385Z,241.88
2018-06-18T08:44:46.378Z,191.25
2018-06-18T08:45:46.377Z,180.00
2018-06-18T08:46:46.373Z,180.00
2018-06-18T08:47:46.378Z,213.75
2018-06-18T08:48:46.377Z,213.75
2018-06-18T08:49:46.378Z,208.13
2018-06-18T08:50:46.486Z,213.75
2018-06-18T08:51:46.378Z,213.75
2018-06-18T08:52:46.377Z,196.88
2018-06-18T08:53:46.383Z,168.75
2018-06-18T08:54:46.383Z,202.50
2018-06-18T08:55:46.378Z,174.38
2018-06-18T08:56:46.378Z,208.13
2018-06-18T08:57:46.380Z,213.75
2018-06-18T08:58:46.376Z,213.75
2018-06-18T08:59:46.374Z,219.38
2018-06-18T09:00:46.377Z,230.63
2018-06-18T09:01:46.380Z,230.63
2018-06-18T09:02:46.377Z,236.25
2018-06-18T09:03:46.377Z,258.75
2018-06-18T09:04:46.377Z,253.13
2018-06-18T09:05:46.375Z,258.75
2018-06-18T09:06:46.379Z,236.25
2018-06-18T09:07:46.377Z,264.38
2018-06-18T09:08:46.376Z,258.75
2018-06-18T09:09:46.375Z,326.25
2018-06-18T09:10:46.376Z,382.50
2018-06-18T09:11:46.375Z,444.38
2018-06-18T09:12:46.373Z,461.25
2018-06-18T09:13:46.374Z,466.88
2018-06-18T09:14:46.376Z,506.25
2018-06-18T09:15:46.375Z,483.75
2018-06-18T09:16:46.377Z,472.50
2018-06-18T09:17:46.374Z,472.50
2018-06-18T09:18:46.374Z,500.63
2018-06-18T09:19:46.376Z,511.88
2018-06-18T09:20:46.374Z,517.50
2018-06-18T09:21:46.375Z,483.75
2018-06-18T09:22:46.375Z,478.13
2018-06-18T09:23:46.443Z,478.13
2018-06-18T09:24:46.376Z,438.75
2018-06-18T09:25:46.377Z,433.13
2018-06-18T09:26:46.378Z,427.50
2018-06-18T09:27:46.381Z,410.63
2018-06-18T09:28:46.378Z,399.38
2018-06-18T09:29:46.379Z,360.00
2018-06-18T09:30:46.381Z,331.88
2018-06-18T09:31:46.380Z,331.88
2018-06-18T09:32:46.381Z,331.88
2018-06-18T09:33:46.381Z,331.88
2018-06-18T09:34:46.386Z,303.75
2018-06-18T09:35:46.419Z,286.88
2018-06-18T09:36:46.383Z,286.88
2018-06-18T09:37:46.388Z,360.00
2018-06-18T09:38:46.384Z,427.50
2018-06-18T09:39:46.383Z,455.63
2018-06-18T09:40:46.385Z,444.38
2018-06-18T09:41:46.386Z,416.25
2018-06-18T09:42:46.388Z,405.00
2018-06-18T09:43:46.389Z,427.50
2018-06-18T09:44:46.391Z,455.63
2018-06-18T09:45:46.391Z,478.13
2018-06-18T09:46:46.392Z,506.25
2018-06-18T09:47:46.395Z,517.50
2018-06-18T09:48:46.394Z,534.38
2018-06-18T09:49:46.394Z,540.00
2018-06-18T09:50:46.398Z,534.38
2018-06-18T09:51:46.398Z,540.00
2018-06-18T09:52:46.399Z,523.13
2018-06-18T09:53:46.398Z,517.50
2018-06-18T09:54:46.400Z,523.13
2018-06-18T09:55:46.434Z,528.75
2018-06-18T09:56:46.395Z,540.00
2018-06-18T09:57:46.401Z,551.25
2018-06-18T09:58:46.408Z,556.88
2018-06-18T09:59:46.405Z,551.25
2018-06-18T10:00:46.406Z,545.63
2018-06-18T10:01:46.408Z,540.00
2018-06-18T10:02:46.406Z,545.63
2018-06-18T10:03:46.410Z,534.38
2018-06-18T10:04:46.409Z,540.00
2018-06-18T10:05:46.412Z,551.25
2018-06-18T10:06:46.414Z,517.50
2018-06-18T10:07:46.415Z,511.88
2018-06-18T10:08:46.506Z,523.13
2018-06-18T10:09:46.417Z,528.75
2018-06-18T10:10:46.418Z,534.38
2018-06-18T10:11:46.422Z,545.63
2018-06-18T10:12:46.422Z,556.88
2018-06-18T10:13:46.424Z,573.75
2018-06-18T10:14:46.427Z,607.50
2018-06-18T10:15:46.425Z,652.50
2018-06-18T10:16:46.426Z,663.75
2018-06-18T10:17:46.428Z,708.75
2018-06-18T10:18:46.432Z,736.88
2018-06-18T10:19:46.433Z,765.00
2018-06-18T10:20:46.431Z,736.88
2018-06-18T10:21:46.432Z,725.63
2018-06-18T10:22:46.436Z,691.88
2018-06-18T10:23:46.441Z,646.88
2018-06-18T10:24:46.439Z,613.13
2018-06-18T10:25:46.440Z,590.63
2018-06-18T10:26:46.443Z,556.88
2018-06-18T10:27:46.445Z,556.88
2018-06-18T10:28:46.445Z,562.50
2018-06-18T10:29:46.451Z,568.13
2018-06-18T10:30:46.449Z,596.25
2018-06-18T10:31:46.452Z,630.00
2018-06-18T10:32:46.460Z,618.75
2018-06-18T10:33:46.455Z,568.13
2018-06-18T10:34:46.458Z,551.25
2018-06-18T10:35:46.459Z,540.00
2018-06-18T10:36:46.461Z,596.25
2018-06-18T10:37:46.461Z,618.75
2018-06-18T10:38:46.465Z,630.00
2018-06-18T10:39:46.468Z,551.25
2018-06-18T10:40:46.472Z,534.38
2018-06-18T10:41:46.470Z,517.50
2018-06-18T10:42:46.476Z,523.13
2018-06-18T10:43:46.473Z,540.00
2018-06-18T10:44:46.481Z,556.88
2018-06-18T10:45:46.478Z,562.50
2018-06-18T10:46:46.476Z,568.13
2018-06-18T10:47:46.480Z,585.00
2018-06-18T10:48:46.483Z,590.63
2018-06-18T10:49:46.486Z,601.88
2018-06-18T10:50:46.486Z,630.00
2018-06-18T10:51:46.489Z,708.75
2018-06-18T10:52:46.491Z,855.00
2018-06-18T10:53:46.491Z,855.00
2018-06-18T10:54:46.493Z,787.50
2018-06-18T10:55:46.496Z,731.25
2018-06-18T10:56:46.497Z,708.75
2018-06-18T10:57:46.500Z,708.75
2018-06-18T10:58:46.502Z,691.88
2018-06-18T10:59:46.503Z,680.63
2018-06-18T11:00:46.505Z,680.63
2018-06-18T11:01:46.508Z,697.50
2018-06-18T11:02:46.508Z,742.50
2018-06-18T11:03:46.558Z,765.00
2018-06-18T11:04:46.514Z,781.88
2018-06-18T11:05:46.517Z,798.75
2018-06-18T11:06:46.520Z,787.50
2018-06-18T11:07:46.523Z,793.13
2018-06-18T11:08:46.523Z,810.00
2018-06-18T11:09:46.527Z,810.00
2018-06-18T11:10:46.527Z,810.00
2018-06-18T11:11:46.532Z,781.88
2018-06-18T11:12:46.532Z,765.00
2018-06-18T11:13:46.535Z,742.50
2018-06-18T11:14:46.538Z,714.38
2018-06-18T11:15:46.566Z,680.63
2018-06-18T11:16:46.702Z,669.38
2018-06-18T11:17:46.545Z,658.13
2018-06-18T11:18:46.548Z,641.25
2018-06-18T11:19:46.550Z,630.00
2018-06-18T11:20:46.553Z,635.63
2018-06-18T11:21:46.582Z,652.50
2018-06-18T11:22:46.572Z,658.13
2018-06-18T11:23:46.559Z,669.38
2018-06-18T11:24:46.562Z,697.50
2018-06-18T11:25:46.563Z,720.00
2018-06-18T11:26:46.584Z,742.50
2018-06-18T11:27:46.570Z,753.75
2018-06-18T11:28:46.636Z,759.38
2018-06-18T11:29:46.573Z,753.75
2018-06-18T11:30:46.580Z,748.13
2018-06-18T11:31:46.578Z,753.75
2018-06-18T11:32:46.582Z,770.63
2018-06-18T11:33:46.581Z,787.50
2018-06-18T11:34:46.586Z,787.50
2018-06-18T11:35:46.588Z,793.13
2018-06-18T11:36:46.605Z,798.75
2018-06-18T11:37:46.601Z,798.75
2018-06-18T11:38:46.596Z,781.88
2018-06-18T11:39:46.602Z,759.38
2018-06-18T11:40:46.654Z,742.50
2018-06-18T11:41:46.664Z,725.63
2018-06-18T11:42:46.606Z,697.50
2018-06-18T11:43:46.737Z,663.75
2018-06-18T11:44:46.611Z,635.63
2018-06-18T11:45:46.620Z,607.50
2018-06-18T11:46:46.616Z,585.00
2018-06-18T11:47:46.618Z,568.13
2018-06-18T11:48:46.622Z,556.88
2018-06-18T11:49:46.622Z,551.25
2018-06-18T11:50:46.625Z,551.25
2018-06-18T11:51:46.630Z,568.13
2018-06-18T11:52:46.630Z,573.75
2018-06-18T11:53:46.632Z,579.38
2018-06-18T11:54:46.637Z,596.25
2018-06-18T11:55:46.668Z,607.50
2018-06-18T11:56:46.638Z,624.38
2018-06-18T11:57:46.643Z,624.38
2018-06-18T11:58:46.645Z,618.75
2018-06-18T11:59:46.646Z,618.75
2018-06-18T12:00:46.649Z,618.75
2018-06-18T12:01:46.649Z,613.13
2018-06-18T12:02:46.652Z,607.50
2018-06-18T12:03:46.664Z,601.88
2018-06-18T12:04:46.657Z,596.25
2018-06-18T12:05:46.659Z,590.63
2018-06-18T12:06:46.666Z,596.25
2018-06-18T12:07:46.666Z,601.88
2018-06-18T12:08:46.667Z,635.63
2018-06-18T12:09:46.745Z,686.25
2018-06-18T12:10:46.672Z,731.25
2018-06-18T12:11:46.675Z,770.63
2018-06-18T12:12:46.678Z,798.75
2018-06-18T12:13:46.678Z,810.00
2018-06-18T12:14:46.682Z,815.63
2018-06-18T12:15:46.682Z,832.50
2018-06-18T12:16:46.697Z,849.38
2018-06-18T12:17:46.688Z,860.63
2018-06-18T12:18:46.692Z,871.88
2018-06-18T12:19:46.691Z,871.88
2018-06-18T12:20:46.694Z,877.50
2018-06-18T12:21:46.698Z,894.38
2018-06-18T12:22:46.702Z,911.25
2018-06-18T12:23:46.704Z,922.50
2018-06-18T12:24:46.703Z,928.13
2018-06-18T12:25:46.707Z,922.50
2018-06-18T12:26:46.709Z,967.50
2018-06-18T12:27:46.713Z,1108.13
2018-06-18T12:28:46.715Z,1192.50
2018-06-18T12:29:46.718Z,1147.50
2018-06-18T12:30:46.721Z,1057.50
2018-06-18T12:31:46.723Z,1080.00
2018-06-18T12:32:46.727Z,1018.13
2018-06-18T12:33:46.731Z,1035.00
2018-06-18T12:34:46.735Z,1006.88
2018-06-18T12:35:46.737Z,1012.50
2018-06-18T12:36:46.741Z,1383.75
2018-06-18T12:37:46.747Z,1085.63
2018-06-18T12:38:46.746Z,1080.00
2018-06-18T12:39:46.750Z,1063.13
2018-06-18T12:40:46.752Z,1102.50
2018-06-18T12:41:46.756Z,1113.75
2018-06-18T12:42:46.760Z,1136.25